createdAt,value
2023-05-13T00:01:53.564Z,101325.62
2023-05-13T00:04:20.483Z,101325.35
2023-05-13T00:06:47.483Z,101328.02
2023-05-13T00:09:14.448Z,101327.88
2023-05-13T00:11:41.365Z,101328.48
2023-05-13T00:14:10.505Z,101328.64
2023-05-13T00:16:37.824Z,101328.80
2023-05-13T00:19:04.899Z,101329.81
2023-05-13T00:21:32.343Z,101330.70
2023-05-13T00:23:59.388Z,101328.02
2023-05-13T00:26:26.319Z,101325.12
2023-05-13T00:28:53.399Z,101327.40
2023-05-13T00:31:20.308Z,101327.39
2023-05-13T00:33:47.352Z,101327.81
2023-05-13T00:36:14.613Z,101327.64
2023-05-13T00:38:43.914Z,101330.36
2023-05-13T00:41:11.922Z,101329.56
2023-05-13T00:43:38.873Z,101332.83
2023-05-13T00:46:06.343Z,101336.35
2023-05-13T00:48:33.631Z,101335.23
2023-05-13T00:51:00.964Z,101335.23
2023-05-13T00:53:27.835Z,101333.48
2023-05-13T00:55:54.908Z,101334.71
2023-05-13T00:58:21.958Z,101336.27
2023-05-13T01:01:18.086Z,101335.08
2023-05-13T01:04:03.850Z,101331.26
2023-05-13T01:06:37.161Z,101331.10
2023-05-13T01:09:27.222Z,101333.02
2023-05-13T01:11:54.206Z,101334.61
2023-05-13T01:14:26.920Z,101336.67
2023-05-13T01:16:56.772Z,101335.70
2023-05-13T01:19:26.970Z,101335.38
2023-05-13T01:21:54.657Z,101337.55
2023-05-13T01:24:21.673Z,101336.36
2023-05-13T01:26:49.567Z,101336.41
2023-05-13T01:29:16.839Z,101334.73
2023-05-13T01:31:44.130Z,101338.54
2023-05-13T01:34:11.629Z,101337.01
2023-05-13T01:36:39.666Z,101337.41
2023-05-13T01:39:06.989Z,101336.38
2023-05-13T01:41:34.127Z,101331.50
2023-05-13T01:46:43.487Z,101331.96
2023-05-13T01:49:11.091Z,101330.30
2023-05-13T01:51:41.618Z,101330.54
2023-05-13T01:54:11.871Z,101334.23
2023-05-13T01:56:40.897Z,101333.45
2023-05-13T01:59:11.892Z,101333.53
2023-05-13T02:01:49.075Z,101330.31
2023-05-13T02:04:15.985Z,101331.15
2023-05-13T02:06:43.262Z,101333.58
2023-05-13T02:09:11.115Z,101336.77
2023-05-13T02:11:40.281Z,101338.00
2023-05-13T02:14:08.299Z,101335.92
2023-05-13T02:16:35.311Z,101338.72
2023-05-13T02:19:09.423Z,101341.52
2023-05-13T02:21:43.640Z,101340.38
2023-05-13T02:24:11.155Z,101340.45
2023-05-13T02:26:38.965Z,101341.11
2023-05-13T02:29:12.616Z,101343.66
2023-05-13T02:31:41.333Z,101343.82
2023-05-13T02:34:13.713Z,101345.89
2023-05-13T02:36:42.703Z,101351.33
2023-05-13T02:39:22.041Z,101348.20
2023-05-13T02:42:03.801Z,101347.59
2023-05-13T02:44:38.930Z,101347.46
2023-05-13T02:47:12.354Z,101347.08
2023-05-13T02:49:39.515Z,101351.75
2023-05-13T02:52:08.691Z,101355.63
2023-05-13T02:54:36.153Z,101357.14
2023-05-13T02:57:03.365Z,101358.94
2023-05-13T03:02:14.726Z,101361.52
2023-05-13T03:04:41.647Z,101359.57
2023-05-13T03:07:11.979Z,101362.71
2023-05-13T03:09:42.050Z,101366.11
2023-05-13T03:12:23.808Z,101371.31
2023-05-13T03:14:50.856Z,101374.81
2023-05-13T03:17:17.798Z,101379.25
2023-05-13T03:19:46.744Z,101383.73
2023-05-13T03:22:15.565Z,101389.16
2023-05-13T03:24:43.331Z,101393.11
2023-05-13T03:27:23.884Z,101391.30
2023-05-13T03:29:56.981Z,101388.66
2023-05-13T03:32:30.585Z,101393.58
2023-05-13T03:35:01.111Z,101394.80
2023-05-13T03:37:29.877Z,101396.86
2023-05-13T03:39:58.134Z,101399.76
2023-05-13T03:42:26.490Z,101395.52
2023-05-13T03:44:57.355Z,101396.98
2023-05-13T03:47:25.037Z,101401.61
2023-05-13T03:49:52.404Z,101405.41
2023-05-13T03:52:20.308Z,101410.00
2023-05-13T03:54:48.312Z,101409.92
2023-05-13T03:57:15.427Z,101413.04
2023-05-13T03:59:42.764Z,101411.86
2023-05-13T04:02:09.684Z,101414.59
2023-05-13T04:04:37.125Z,101413.00
2023-05-13T04:07:04.233Z,101413.67
2023-05-13T04:09:31.118Z,101415.80
2023-05-13T04:11:58.103Z,101416.53
2023-05-13T04:14:24.943Z,101419.71
2023-05-13T04:16:51.831Z,101420.52
2023-05-13T04:19:19.145Z,101422.02
2023-05-13T04:21:46.591Z,101418.77
2023-05-13T04:24:13.463Z,101418.30
2023-05-13T04:26:40.374Z,101422.63
2023-05-13T04:29:07.497Z,101422.24
2023-05-13T04:31:34.506Z,101427.25
2023-05-13T04:34:01.477Z,101423.86
2023-05-13T04:36:28.403Z,101423.06
2023-05-13T04:38:56.460Z,101426.04
2023-05-13T04:41:23.495Z,101425.11
2023-05-13T04:43:50.387Z,101425.73
2023-05-13T04:46:17.431Z,101426.96
2023-05-13T04:48:48.398Z,101429.14
2023-05-13T04:51:16.402Z,101429.49
2023-05-13T04:53:43.684Z,101431.39
2023-05-13T04:56:10.851Z,101431.45
2023-05-13T04:58:38.050Z,101428.22
2023-05-13T05:01:05.231Z,101428.35
2023-05-13T05:03:32.946Z,101425.91
2023-05-13T05:06:00.001Z,101430.60
2023-05-13T05:08:28.848Z,101435.05
2023-05-13T05:11:23.872Z,101434.66
2023-05-13T05:13:55.301Z,101435.77
2023-05-13T05:16:27.854Z,101433.90
2023-05-13T05:18:55.329Z,101434.64
2023-05-13T05:21:23.895Z,101432.45
2023-05-13T05:23:50.905Z,101430.05
2023-05-13T05:26:18.468Z,101432.70
2023-05-13T05:28:45.543Z,101435.06
2023-05-13T05:31:13.360Z,101437.05
2023-05-13T05:33:40.419Z,101434.81
2023-05-13T05:36:07.992Z,101438.93
2023-05-13T05:38:35.840Z,101439.09
2023-05-13T05:41:03.251Z,101437.30
2023-05-13T05:43:30.896Z,101437.34
2023-05-13T05:45:57.896Z,101432.83
2023-05-13T05:48:25.678Z,101436.23
2023-05-13T05:50:53.320Z,101439.13
2023-05-13T05:53:26.309Z,101437.09
2023-05-13T05:55:53.880Z,101435.98
2023-05-13T05:58:21.377Z,101433.90
2023-05-13T06:00:48.745Z,101430.87
2023-05-13T06:03:16.161Z,101428.88
2023-05-13T06:05:43.177Z,101433.17
2023-05-13T06:08:10.158Z,101435.30
2023-05-13T06:10:38.644Z,101435.47
2023-05-13T06:13:05.787Z,101437.77
2023-05-13T06:17:10.193Z,101438.31
2023-05-13T06:30:38.194Z,101434.58
2023-05-13T06:33:05.626Z,101434.80
2023-05-13T06:35:32.592Z,101434.45
2023-05-13T06:38:00.953Z,101436.13
2023-05-13T06:40:28.326Z,101440.14
2023-05-13T06:42:55.902Z,101441.98
2023-05-13T06:45:29.062Z,101441.52
2023-05-13T06:47:56.645Z,101444.34
2023-05-13T06:50:24.000Z,101441.31
2023-05-13T06:52:51.363Z,101438.75
2023-05-13T06:55:19.209Z,101438.23
2023-05-13T06:57:47.482Z,101437.15
2023-05-13T07:00:15.406Z,101435.95
2023-05-13T07:02:42.297Z,101434.10
2023-05-13T07:05:11.390Z,101432.92
2023-05-13T07:07:38.675Z,101431.89
2023-05-13T07:10:06.092Z,101433.80
2023-05-13T07:12:33.236Z,101434.80
2023-05-13T07:15:00.187Z,101429.86
2023-05-13T07:17:27.107Z,101428.61
2023-05-13T07:19:54.355Z,101428.27
2023-05-13T07:22:21.349Z,101427.71
2023-05-13T07:24:48.145Z,101423.02
2023-05-13T07:27:15.185Z,101428.08
2023-05-13T07:29:42.142Z,101426.61
2023-05-13T07:32:09.000Z,101427.98
2023-05-13T07:34:36.004Z,101426.70
2023-05-13T07:37:04.664Z,101423.59
2023-05-13T07:39:31.497Z,101426.09
2023-05-13T07:41:58.911Z,101420.29
2023-05-13T07:44:26.243Z,101415.39
2023-05-13T07:46:53.854Z,101417.13
2023-05-13T07:49:21.157Z,101415.61
2023-05-13T07:51:47.988Z,101414.38
2023-05-13T07:54:14.817Z,101413.29
2023-05-13T07:56:44.205Z,101413.33
2023-05-13T07:59:11.189Z,101417.55
2023-05-13T08:01:38.178Z,101418.94
2023-05-13T08:04:05.307Z,101416.80
2023-05-13T08:06:33.164Z,101414.39
2023-05-13T08:09:00.249Z,101413.39
2023-05-13T08:11:27.986Z,101410.76
2023-05-13T08:13:55.051Z,101411.84
2023-05-13T08:16:21.898Z,101412.23
2023-05-13T08:18:48.962Z,101411.61
2023-05-13T08:21:15.985Z,101411.88
2023-05-13T08:23:45.954Z,101413.78
2023-05-13T08:26:13.836Z,101412.44
2023-05-13T08:28:42.430Z,101408.42
2023-05-13T08:31:12.954Z,101406.66
2023-05-13T08:33:42.059Z,101403.59
2023-05-13T08:36:09.533Z,101401.34
2023-05-13T08:38:36.422Z,101399.75
2023-05-13T08:41:06.649Z,101392.08
2023-05-13T08:43:33.870Z,101389.84
2023-05-13T08:46:04.448Z,101387.92
2023-05-13T08:48:32.104Z,101386.13
2023-05-13T08:50:59.164Z,101386.98
2023-05-13T08:53:26.894Z,101385.16
2023-05-13T08:55:54.529Z,101381.21
2023-05-13T08:58:21.458Z,101377.27
2023-05-13T09:00:51.919Z,101378.46
2023-05-13T09:03:19.605Z,101380.25
2023-05-13T09:05:46.577Z,101378.58
2023-05-13T09:08:13.485Z,101374.61
2023-05-13T09:10:40.522Z,101374.39
2023-05-13T09:13:07.577Z,101370.77
2023-05-13T09:15:34.577Z,101371.10
2023-05-13T09:18:05.398Z,101367.75
2023-05-13T09:20:32.585Z,101360.45
2023-05-13T09:23:07.294Z,101355.89
2023-05-13T09:25:34.416Z,101353.73
2023-05-13T09:28:02.616Z,101349.41
2023-05-13T09:30:33.880Z,101345.05
2023-05-13T09:33:05.062Z,101342.54
2023-05-13T09:35:32.320Z,101337.16
2023-05-13T09:37:59.283Z,101333.75
2023-05-13T09:40:26.309Z,101331.02
2023-05-13T09:42:56.988Z,101323.91
2023-05-13T09:45:23.983Z,101321.25
2023-05-13T09:47:52.497Z,101321.08
2023-05-13T09:50:19.888Z,101317.40
2023-05-13T09:52:46.988Z,101315.96
2023-05-13T09:55:14.043Z,101317.90
2023-05-13T09:57:41.116Z,101315.34
2023-05-13T10:00:17.829Z,101308.83
2023-05-13T10:02:52.224Z,101305.86
2023-05-13T10:05:19.242Z,101305.91
2023-05-13T10:07:46.168Z,101301.21
2023-05-13T10:10:13.142Z,101299.21
2023-05-13T10:12:40.175Z,101295.96
2023-05-13T10:15:07.408Z,101294.96
2023-05-13T10:17:34.673Z,101297.80
2023-05-13T10:20:02.031Z,101296.89
2023-05-13T10:22:30.178Z,101293.48
2023-05-13T10:25:00.520Z,101294.14
2023-05-13T10:27:29.722Z,101291.46
2023-05-13T10:29:57.755Z,101291.96
2023-05-13T10:32:25.724Z,101292.39
2023-05-13T10:35:28.127Z,101289.39
2023-05-13T10:38:04.120Z,101283.42
2023-05-13T10:40:59.300Z,101282.81
2023-05-13T10:43:30.132Z,101281.46
2023-05-13T10:46:01.328Z,101280.54
2023-05-13T10:48:47.776Z,101282.05
2023-05-13T10:51:15.377Z,101279.02
2023-05-13T10:53:49.947Z,101279.61
2023-05-13T10:56:24.403Z,101277.95
2023-05-13T10:58:59.419Z,101278.27
2023-05-13T11:01:29.761Z,101274.66
2023-05-13T11:04:04.225Z,101273.04
2023-05-13T11:06:35.620Z,101266.66
2023-05-13T11:09:05.901Z,101267.52
2023-05-13T11:11:34.175Z,101267.92
2023-05-13T11:14:21.018Z,101266.95
2023-05-13T11:17:00.442Z,101265.27
2023-05-13T11:19:35.079Z,101265.95
2023-05-13T11:22:16.777Z,101265.13
2023-05-13T11:25:08.960Z,101259.69
2023-05-13T11:27:42.579Z,101259.44
2023-05-13T11:30:42.194Z,101256.88
2023-05-13T11:33:12.448Z,101255.06
2023-05-13T11:35:39.454Z,101254.85
2023-05-13T11:38:06.615Z,101250.30
2023-05-13T11:40:34.482Z,101249.16
2023-05-13T11:43:01.427Z,101245.30
2023-05-13T11:45:29.677Z,101244.52
2023-05-13T11:47:57.504Z,101238.81
2023-05-13T11:50:32.717Z,101238.05
2023-05-13T11:53:00.361Z,101240.75
2023-05-13T11:55:36.203Z,101238.80
2023-05-13T11:58:03.283Z,101242.67
2023-05-13T12:00:31.539Z,101239.48
2023-05-13T12:02:58.960Z,101242.80
2023-05-13T12:05:26.868Z,101239.85
2023-05-13T12:07:58.248Z,101234.73
2023-05-13T12:10:26.097Z,101230.30
2023-05-13T12:12:53.133Z,101229.02
2023-05-13T12:15:21.166Z,101224.46
2023-05-13T12:17:48.451Z,101219.69
2023-05-13T12:20:19.682Z,101217.39
2023-05-13T12:22:46.952Z,101215.19
2023-05-13T12:25:32.961Z,101212.77
2023-05-13T12:28:00.166Z,101212.16
2023-05-13T12:30:34.115Z,101210.66
2023-05-13T12:33:01.325Z,101212.13
2023-05-13T12:35:28.417Z,101214.66
2023-05-13T12:38:03.291Z,101212.77
2023-05-13T12:40:30.699Z,101208.83
2023-05-13T12:42:58.716Z,101210.64
2023-05-13T12:45:30.117Z,101210.22
2023-05-13T12:47:57.358Z,101210.48
2023-05-13T12:50:24.656Z,101209.30
2023-05-13T12:52:52.792Z,101207.17
2023-05-13T12:55:19.899Z,101198.28
2023-05-13T12:57:57.119Z,101199.73
2023-05-13T13:00:24.428Z,101200.03
2023-05-13T13:02:53.538Z,101198.21
2023-05-13T13:05:21.737Z,101196.91
2023-05-13T13:07:49.168Z,101193.12
2023-05-13T13:10:16.106Z,101191.34
2023-05-13T13:12:43.410Z,101191.04
2023-05-13T13:15:11.164Z,101191.36
2023-05-13T13:17:38.154Z,101195.46
2023-05-13T13:20:07.644Z,101191.84
2023-05-13T13:22:37.229Z,101190.65
2023-05-13T13:25:06.004Z,101184.65
2023-05-13T13:27:33.785Z,101186.31
2023-05-13T13:30:00.897Z,101187.12
2023-05-13T13:32:27.943Z,101183.59
2023-05-13T13:34:55.004Z,101182.99
2023-05-13T13:37:22.178Z,101181.89
2023-05-13T13:39:49.170Z,101179.09
2023-05-13T13:42:16.240Z,101175.21
2023-05-13T13:44:43.082Z,101170.86
2023-05-13T13:47:09.941Z,101171.96
2023-05-13T13:49:36.995Z,101173.98
2023-05-13T13:52:04.126Z,101176.34
2023-05-13T13:54:31.009Z,101172.59
2023-05-13T13:56:57.870Z,101172.36
2023-05-13T13:59:24.896Z,101169.86
2023-05-13T14:01:53.026Z,101172.20
2023-05-13T14:04:20.529Z,101172.79
2023-05-13T14:06:47.568Z,101171.74
2023-05-13T14:09:14.972Z,101170.29
2023-05-13T14:11:42.011Z,101171.63
2023-05-13T14:14:09.259Z,101169.80
2023-05-13T14:16:36.478Z,101168.31
2023-05-13T14:19:03.673Z,101164.17
2023-05-13T14:21:32.467Z,101166.58
2023-05-13T14:23:59.428Z,101167.67
2023-05-13T14:26:26.564Z,101171.17
2023-05-13T14:28:54.398Z,101169.96
2023-05-13T14:31:21.401Z,101169.07
2023-05-13T14:33:48.483Z,101163.73
2023-05-13T14:36:16.409Z,101164.14
2023-05-13T14:38:43.808Z,101163.85
2023-05-13T14:41:11.150Z,101168.52
2023-05-13T14:43:38.069Z,101171.36
2023-05-13T14:46:05.223Z,101170.64
2023-05-13T14:48:32.231Z,101171.45
2023-05-13T14:50:59.213Z,101168.52
2023-05-13T14:53:26.394Z,101169.63
2023-05-13T14:55:53.673Z,101164.31
2023-05-13T14:58:20.625Z,101165.66
2023-05-13T15:00:48.812Z,101165.32
2023-05-13T15:03:15.873Z,101162.88
2023-05-13T15:05:44.227Z,101163.92
2023-05-13T15:08:11.369Z,101159.41
2023-05-13T15:10:38.689Z,101159.52
2023-05-13T15:13:05.706Z,101159.85
2023-05-13T15:15:33.774Z,101156.59
2023-05-13T15:18:00.849Z,101158.69
2023-05-13T15:20:28.653Z,101155.88
2023-05-13T15:22:55.893Z,101157.56
2023-05-13T15:25:22.941Z,101160.46
2023-05-13T15:27:51.425Z,101157.27
2023-05-13T15:30:18.399Z,101160.01
2023-05-13T15:32:45.359Z,101161.70
2023-05-13T15:35:12.427Z,101163.67
2023-05-13T15:37:42.681Z,101161.99
2023-05-13T15:40:10.107Z,101163.42
2023-05-13T15:42:37.007Z,101164.66
2023-05-13T15:45:04.512Z,101161.46
2023-05-13T15:47:31.611Z,101160.63
2023-05-13T15:49:59.181Z,101156.40
2023-05-13T15:52:26.057Z,101156.01
2023-05-13T15:54:53.021Z,101160.15
2023-05-13T15:57:20.043Z,101158.02
2023-05-13T15:59:47.090Z,101159.77
2023-05-13T16:02:14.200Z,101157.95
2023-05-13T16:04:41.260Z,101157.27
2023-05-13T16:07:11.102Z,101159.72
2023-05-13T16:09:39.043Z,101158.05
2023-05-13T16:12:06.292Z,101153.25
2023-05-13T16:14:33.253Z,101155.86
2023-05-13T16:17:00.797Z,101156.23
2023-05-13T16:19:27.691Z,101155.50
2023-05-13T16:21:54.540Z,101154.96
2023-05-13T16:24:22.593Z,101152.20
2023-05-13T16:26:49.700Z,101153.55
2023-05-13T16:29:16.711Z,101152.29
2023-05-13T16:31:43.828Z,101153.36
2023-05-13T16:34:10.765Z,101156.84
2023-05-13T16:36:37.737Z,101163.00
2023-05-13T16:39:05.354Z,101164.64
2023-05-13T16:41:33.322Z,101164.83
2023-05-13T16:44:00.275Z,101162.17
2023-05-13T16:46:27.374Z,101165.79
2023-05-13T16:48:54.761Z,101167.17
2023-05-13T16:51:23.040Z,101170.94
2023-05-13T16:53:49.930Z,101171.67
2023-05-13T16:56:16.777Z,101171.42
2023-05-13T16:58:43.878Z,101172.05
2023-05-13T17:01:11.068Z,101176.48
2023-05-13T17:03:38.067Z,101176.59
2023-05-13T17:06:07.301Z,101175.88
2023-05-13T17:08:34.230Z,101177.31
2023-05-13T17:11:01.060Z,101174.92
2023-05-13T17:13:27.855Z,101177.27
2023-05-13T17:15:54.768Z,101171.13
2023-05-13T17:18:21.661Z,101170.23
2023-05-13T17:20:48.762Z,101170.36
2023-05-13T17:23:17.321Z,101170.44
2023-05-13T17:25:44.191Z,101174.39
2023-05-13T17:28:11.794Z,101175.88
2023-05-13T17:30:38.715Z,101178.81
2023-05-13T17:33:05.780Z,101177.79
2023-05-13T17:35:32.727Z,101181.20
2023-05-13T17:37:59.589Z,101182.42
2023-05-13T17:40:26.410Z,101180.27
2023-05-13T17:42:53.320Z,101183.81
2023-05-13T17:45:20.504Z,101185.27
2023-05-13T17:47:47.572Z,101187.66
2023-05-13T17:50:15.096Z,101184.23
2023-05-13T17:52:42.176Z,101187.62
2023-05-13T17:55:09.434Z,101191.31
2023-05-13T17:57:36.465Z,101191.39
2023-05-13T18:00:07.071Z,101195.61
2023-05-13T18:02:36.268Z,101198.71
2023-05-13T18:05:03.757Z,101199.23
2023-05-13T18:07:30.930Z,101198.45
2023-05-13T18:09:58.074Z,101200.84
2023-05-13T18:12:29.299Z,101202.38
2023-05-13T18:14:56.439Z,101206.15
2023-05-13T18:17:23.336Z,101211.10
2023-05-13T18:19:50.555Z,101212.08
2023-05-13T18:22:17.569Z,101209.13
2023-05-13T18:24:44.458Z,101206.27
2023-05-13T18:27:11.310Z,101209.04
2023-05-13T18:29:38.304Z,101211.65
2023-05-13T18:32:05.646Z,101211.28
2023-05-13T18:34:33.205Z,101211.37
2023-05-13T18:38:18.738Z,101212.38
2023-05-13T18:40:45.596Z,101215.80
2023-05-13T18:43:12.899Z,101218.01
2023-05-13T18:45:39.949Z,101220.61
2023-05-13T18:48:06.889Z,101222.00
2023-05-13T18:50:33.950Z,101220.16
2023-05-13T18:53:01.042Z,101222.13
2023-05-13T18:55:28.043Z,101222.00
2023-05-13T18:57:55.028Z,101223.08
2023-05-13T19:00:22.216Z,101223.96
2023-05-13T19:02:49.504Z,101223.85
2023-05-13T19:05:17.510Z,101220.52
2023-05-13T19:07:46.146Z,101220.33
2023-05-13T19:10:13.195Z,101219.89
2023-05-13T19:12:40.226Z,101223.92
2023-05-13T19:15:07.794Z,101219.92
2023-05-13T19:17:35.224Z,101222.77
2023-05-13T19:20:02.358Z,101223.60
2023-05-13T19:22:29.339Z,101226.30
2023-05-13T19:24:56.112Z,101223.70
2023-05-13T19:27:22.992Z,101219.48
2023-05-13T19:29:50.300Z,101217.70
2023-05-13T19:32:17.616Z,101217.23
2023-05-13T19:34:44.490Z,101216.45
2023-05-13T19:37:11.514Z,101214.90
2023-05-13T19:39:38.438Z,101216.95
2023-05-13T19:42:06.276Z,101219.42
2023-05-13T19:44:34.213Z,101220.58
2023-05-13T19:47:01.417Z,101218.11
2023-05-13T19:49:28.364Z,101216.47
2023-05-13T19:51:55.630Z,101217.46
2023-05-13T19:54:22.625Z,101216.61
2023-05-13T19:56:49.534Z,101217.07
2023-05-13T19:59:16.538Z,101216.18
2023-05-13T20:01:43.691Z,101212.73
2023-05-13T20:04:10.662Z,101212.66
2023-05-13T20:06:37.645Z,101212.73
2023-05-13T20:09:04.693Z,101212.99
2023-05-13T20:11:31.873Z,101206.29
2023-05-13T20:13:59.521Z,101211.44
2023-05-13T20:16:26.680Z,101210.58
2023-05-13T20:18:53.593Z,101209.43
2023-05-13T20:21:20.751Z,101209.40
2023-05-13T20:23:47.842Z,101207.45
2023-05-13T20:26:14.880Z,101207.69
2023-05-13T20:28:41.740Z,101206.71
2023-05-13T20:31:08.686Z,101199.68
2023-05-13T20:33:35.683Z,101197.98
2023-05-13T20:36:02.620Z,101196.67
2023-05-13T20:38:29.775Z,101202.81
2023-05-13T20:40:56.878Z,101201.63
2023-05-13T20:43:23.837Z,101204.05
2023-05-13T20:45:51.206Z,101199.97
2023-05-13T20:48:18.179Z,101199.23
2023-05-13T20:50:45.022Z,101202.70
2023-05-13T20:53:11.923Z,101203.02
2023-05-13T20:55:38.989Z,101202.73
2023-05-13T20:58:06.008Z,101204.60
2023-05-13T21:00:32.849Z,101203.48
2023-05-13T21:03:00.030Z,101205.60
2023-05-13T21:05:27.151Z,101209.13
2023-05-13T21:07:54.259Z,101207.33
2023-05-13T21:10:21.695Z,101199.02
2023-05-13T21:12:48.814Z,101196.66
2023-05-13T21:15:16.907Z,101191.08
2023-05-13T21:17:44.062Z,101184.71
2023-05-13T21:20:11.913Z,101177.45
2023-05-13T21:22:38.790Z,101173.82
2023-05-13T21:25:06.697Z,101172.42
2023-05-13T21:27:33.589Z,101170.63
2023-05-13T21:30:00.725Z,101169.55
2023-05-13T21:32:27.678Z,101169.64
2023-05-13T21:34:55.395Z,101168.48
2023-05-13T21:37:22.407Z,101168.45
2023-05-13T21:39:49.496Z,101168.75
2023-05-13T21:42:16.536Z,101169.79
2023-05-13T21:44:43.576Z,101172.39
2023-05-13T21:47:10.626Z,101181.17
2023-05-13T21:49:37.530Z,101177.09
2023-05-13T21:52:04.671Z,101178.12
2023-05-13T21:54:31.697Z,101173.34
2023-05-13T21:56:58.725Z,101172.59
2023-05-13T21:59:25.802Z,101176.55
2023-05-13T22:01:52.738Z,101181.02
2023-05-13T22:04:19.702Z,101180.16
2023-05-13T22:06:46.828Z,101176.53
2023-05-13T22:09:13.775Z,101174.60
2023-05-13T22:11:40.716Z,101174.19
2023-05-13T22:14:07.910Z,101172.42
2023-05-13T22:16:34.932Z,101173.46
2023-05-13T22:19:04.640Z,101169.98
2023-05-13T22:21:32.504Z,101168.98
2023-05-13T22:23:59.517Z,101166.77
2023-05-13T22:26:26.340Z,101168.35
2023-05-13T22:28:53.354Z,101171.19
2023-05-13T22:31:20.400Z,101174.04
2023-05-13T22:33:47.470Z,101175.67
2023-05-13T22:36:14.411Z,101173.18
2023-05-13T22:38:44.423Z,101174.67
2023-05-13T22:41:11.868Z,101173.27
2023-05-13T22:43:38.819Z,101171.67
2023-05-13T22:46:05.740Z,101172.19
2023-05-13T22:48:32.744Z,101170.30
2023-05-13T22:50:59.696Z,101168.70
2023-05-13T22:53:26.841Z,101167.32
2023-05-13T22:55:53.844Z,101169.67
2023-05-13T22:58:20.981Z,101170.71
2023-05-13T23:00:49.073Z,101169.80
2023-05-13T23:03:16.100Z,101165.84
2023-05-13T23:05:43.119Z,101168.70
2023-05-13T23:08:10.164Z,101166.91
2023-05-13T23:10:37.094Z,101166.20
2023-05-13T23:13:05.821Z,101171.05
2023-05-13T23:15:33.394Z,101169.73
2023-05-13T23:18:00.563Z,101166.16
2023-05-13T23:20:27.516Z,101166.86
2023-05-13T23:22:55.234Z,101167.17
2023-05-13T23:25:22.170Z,101169.02
2023-05-13T23:27:49.061Z,101169.63
2023-05-13T23:30:16.852Z,101171.86
2023-05-13T23:32:43.908Z,101172.48
2023-05-13T23:35:11.012Z,101172.06
2023-05-13T23:37:37.870Z,101174.02
2023-05-13T23:40:05.746Z,101172.80
2023-05-13T23:42:32.876Z,101178.36
2023-05-13T23:44:59.816Z,101178.14
2023-05-13T23:47:26.850Z,101183.23
2023-05-13T23:49:53.821Z,101183.96
2023-05-13T23:52:20.827Z,101183.10
2023-05-13T23:54:47.729Z,101181.48
2023-05-13T23:57:14.693Z,101182.36
2023-05-13T23:59:41.569Z,101191.90
